sensor_id;sensor_type;location;lat;lon;timestamp;temperature;humidity
34249;DHT22;20508;50.834;3.160;2022-09-09T00:01:28;24.80;51.80
34249;DHT22;20508;50.834;3.160;2022-09-09T00:04:35;24.70;51.70
34249;DHT22;20508;50.834;3.160;2022-09-09T00:07:22;24.70;51.60
34249;DHT22;20508;50.834;3.160;2022-09-09T00:22:18;24.80;51.40
34249;DHT22;20508;50.834;3.160;2022-09-09T00:28:25;24.70;51.40
34249;DHT22;20508;50.834;3.160;2022-09-09T00:31:23;24.70;51.50
34249;DHT22;20508;50.834;3.160;2022-09-09T00:33:55;24.70;51.60
34249;DHT22;20508;50.834;3.160;2022-09-09T00:36:41;24.70;51.60
34249;DHT22;20508;50.834;3.160;2022-09-09T00:39:59;24.70;51.60
34249;DHT22;20508;50.834;3.160;2022-09-09T00:42:46;24.70;51.60
34249;DHT22;20508;50.834;3.160;2022-09-09T00:48:18;24.70;51.40
34249;DHT22;20508;50.834;3.160;2022-09-09T00:51:07;24.70;51.50
34249;DHT22;20508;50.834;3.160;2022-09-09T00:56:36;24.70;51.20
34249;DHT22;20508;50.834;3.160;2022-09-09T01:02:30;24.80;51.00
34249;DHT22;20508;50.834;3.160;2022-09-09T01:05:33;24.80;50.90
34249;DHT22;20508;50.834;3.160;2022-09-09T01:08:02;24.80;50.80
34249;DHT22;20508;50.834;3.160;2022-09-09T01:10:54;24.70;50.80
34249;DHT22;20508;50.834;3.160;2022-09-09T01:13:35;24.80;50.70
34249;DHT22;20508;50.834;3.160;2022-09-09T01:16:13;24.80;50.80
34249;DHT22;20508;50.834;3.160;2022-09-09T01:18:52;24.80;50.80
34249;DHT22;20508;50.834;3.160;2022-09-09T01:22:09;24.80;50.70
34249;DHT22;20508;50.834;3.160;2022-09-09T01:25:19;24.80;50.70
34249;DHT22;20508;50.834;3.160;2022-09-09T01:28:12;24.70;50.70
34249;DHT22;20508;50.834;3.160;2022-09-09T01:30:47;24.70;51.00
34249;DHT22;20508;50.834;3.160;2022-09-09T01:33:23;24.60;50.90
34249;DHT22;20508;50.834;3.160;2022-09-09T01:36:13;24.70;50.90
34249;DHT22;20508;50.834;3.160;2022-09-09T01:38:47;24.70;50.60
34249;DHT22;20508;50.834;3.160;2022-09-09T01:41:23;24.70;50.70
34249;DHT22;20508;50.834;3.160;2022-09-09T01:44:19;24.60;50.70
34249;DHT22;20508;50.834;3.160;2022-09-09T01:46:45;24.70;50.60
34249;DHT22;20508;50.834;3.160;2022-09-09T01:49:14;24.60;50.70
34249;DHT22;20508;50.834;3.160;2022-09-09T01:51:43;24.60;50.70
34249;DHT22;20508;50.834;3.160;2022-09-09T01:54:24;24.60;50.60
34249;DHT22;20508;50.834;3.160;2022-09-09T02:00:50;24.60;50.70
34249;DHT22;20508;50.834;3.160;2022-09-09T02:03:32;24.50;50.80
34249;DHT22;20508;50.834;3.160;2022-09-09T02:06:38;24.50;50.90
34249;DHT22;20508;50.834;3.160;2022-09-09T02:09:16;24.50;50.90
34249;DHT22;20508;50.834;3.160;2022-09-09T02:12:05;24.40;51.10
34249;DHT22;20508;50.834;3.160;2022-09-09T02:14:40;24.50;50.90
34249;DHT22;20508;50.834;3.160;2022-09-09T02:17:16;24.50;50.90
34249;DHT22;20508;50.834;3.160;2022-09-09T02:20:10;24.50;50.90
34249;DHT22;20508;50.834;3.160;2022-09-09T02:23:12;24.50;50.80
34249;DHT22;20508;50.834;3.160;2022-09-09T02:25:53;24.40;50.90
34249;DHT22;20508;50.834;3.160;2022-09-09T02:28:35;24.40;50.90
34249;DHT22;20508;50.834;3.160;2022-09-09T02:31:07;24.50;51.00
34249;DHT22;20508;50.834;3.160;2022-09-09T02:33:55;24.40;50.90
34249;DHT22;20508;50.834;3.160;2022-09-09T02:36:40;24.40;50.90
34249;DHT22;20508;50.834;3.160;2022-09-09T02:39:31;24.40;51.00
34249;DHT22;20508;50.834;3.160;2022-09-09T02:42:17;24.40;51.00
34249;DHT22;20508;50.834;3.160;2022-09-09T02:45:18;24.30;51.10
34249;DHT22;20508;50.834;3.160;2022-09-09T02:51:48;24.40;51.10
34249;DHT22;20508;50.834;3.160;2022-09-09T02:54:53;24.40;51.10
34249;DHT22;20508;50.834;3.160;2022-09-09T02:57:48;24.40;51.00
34249;DHT22;20508;50.834;3.160;2022-09-09T03:00:33;24.40;51.20
34249;DHT22;20508;50.834;3.160;2022-09-09T03:03:15;24.40;51.10
34249;DHT22;20508;50.834;3.160;2022-09-09T03:05:57;24.40;51.10
34249;DHT22;20508;50.834;3.160;2022-09-09T03:08:52;24.40;51.20
34249;DHT22;20508;50.834;3.160;2022-09-09T03:11:28;24.30;51.20
34249;DHT22;20508;50.834;3.160;2022-09-09T03:14:22;24.30;51.30
34249;DHT22;20508;50.834;3.160;2022-09-09T03:16:56;24.40;51.20
34249;DHT22;20508;50.834;3.160;2022-09-09T03:19:56;24.30;51.30
34249;DHT22;20508;50.834;3.160;2022-09-09T03:22:32;24.40;51.20
34249;DHT22;20508;50.834;3.160;2022-09-09T03:25:14;24.40;51.20
34249;DHT22;20508;50.834;3.160;2022-09-09T03:28:00;24.30;51.30
34249;DHT22;20508;50.834;3.160;2022-09-09T03:30:30;24.30;51.20
34249;DHT22;20508;50.834;3.160;2022-09-09T03:33:11;24.40;51.20
34249;DHT22;20508;50.834;3.160;2022-09-09T03:35:56;24.40;51.10
34249;DHT22;20508;50.834;3.160;2022-09-09T03:38:30;24.50;51.00
34249;DHT22;20508;50.834;3.160;2022-09-09T03:41:13;24.40;50.90
34249;DHT22;20508;50.834;3.160;2022-09-09T03:44:09;24.50;50.70
34249;DHT22;20508;50.834;3.160;2022-09-09T03:46:48;24.50;50.70
34249;DHT22;20508;50.834;3.160;2022-09-09T03:49:21;24.50;50.80
34249;DHT22;20508;50.834;3.160;2022-09-09T03:52:18;24.50;50.80
34249;DHT22;20508;50.834;3.160;2022-09-09T03:55:14;24.50;50.80
34249;DHT22;20508;50.834;3.160;2022-09-09T03:57:43;24.40;50.80
34249;DHT22;20508;50.834;3.160;2022-09-09T04:00:26;24.40;50.90
34249;DHT22;20508;50.834;3.160;2022-09-09T04:02:56;24.40;50.90
34249;DHT22;20508;50.834;3.160;2022-09-09T04:05:30;24.40;51.10
34249;DHT22;20508;50.834;3.160;2022-09-09T04:08:09;24.40;51.00
34249;DHT22;20508;50.834;3.160;2022-09-09T04:11:00;24.40;51.20
34249;DHT22;20508;50.834;3.160;2022-09-09T04:13:53;24.40;51.10
34249;DHT22;20508;50.834;3.160;2022-09-09T04:16:29;24.30;51.20
34249;DHT22;20508;50.834;3.160;2022-09-09T04:19:07;24.30;51.30
34249;DHT22;20508;50.834;3.160;2022-09-09T04:21:53;24.40;51.20
34249;DHT22;20508;50.834;3.160;2022-09-09T04:24:35;24.30;51.10
34249;DHT22;20508;50.834;3.160;2022-09-09T04:27:32;24.30;51.20
34249;DHT22;20508;50.834;3.160;2022-09-09T04:30:17;24.30;51.20
34249;DHT22;20508;50.834;3.160;2022-09-09T04:32:57;24.30;51.30
34249;DHT22;20508;50.834;3.160;2022-09-09T04:35:36;24.20;51.30
34249;DHT22;20508;50.834;3.160;2022-09-09T04:38:07;24.20;51.30
34249;DHT22;20508;50.834;3.160;2022-09-09T04:40:38;24.20;51.50
34249;DHT22;20508;50.834;3.160;2022-09-09T04:43:21;24.10;51.50
34249;DHT22;20508;50.834;3.160;2022-09-09T04:46:17;24.10;51.70
34249;DHT22;20508;50.834;3.160;2022-09-09T04:48:45;24.10;51.70
34249;DHT22;20508;50.834;3.160;2022-09-09T04:51:19;24.10;51.70
34249;DHT22;20508;50.834;3.160;2022-09-09T04:54:00;24.10;51.80
34249;DHT22;20508;50.834;3.160;2022-09-09T04:56:33;24.10;51.70
34249;DHT22;20508;50.834;3.160;2022-09-09T04:59:14;24.10;51.80
34249;DHT22;20508;50.834;3.160;2022-09-09T05:01:51;24.10;51.80
34249;DHT22;20508;50.834;3.160;2022-09-09T05:04:25;24.10;51.80
34249;DHT22;20508;50.834;3.160;2022-09-09T05:07:28;24.10;51.90
34249;DHT22;20508;50.834;3.160;2022-09-09T05:10:19;24.10;51.90
34249;DHT22;20508;50.834;3.160;2022-09-09T05:12:58;24.20;51.90
34249;DHT22;20508;50.834;3.160;2022-09-09T05:15:38;24.10;52.20
34249;DHT22;20508;50.834;3.160;2022-09-09T05:18:29;24.10;52.20
34249;DHT22;20508;50.834;3.160;2022-09-09T05:21:26;24.10;52.40
34249;DHT22;20508;50.834;3.160;2022-09-09T05:23:59;24.10;52.40
34249;DHT22;20508;50.834;3.160;2022-09-09T05:26:39;24.00;52.50
34249;DHT22;20508;50.834;3.160;2022-09-09T05:32:11;24.00;52.60
34249;DHT22;20508;50.834;3.160;2022-09-09T05:34:54;24.00;52.80
34249;DHT22;20508;50.834;3.160;2022-09-09T05:37:40;24.10;52.80
34249;DHT22;20508;50.834;3.160;2022-09-09T05:40:08;24.00;52.90
34249;DHT22;20508;50.834;3.160;2022-09-09T05:42:46;24.10;52.80
34249;DHT22;20508;50.834;3.160;2022-09-09T05:45:30;24.00;52.70
34249;DHT22;20508;50.834;3.160;2022-09-09T05:48:06;24.10;52.80
34249;DHT22;20508;50.834;3.160;2022-09-09T05:51:14;24.10;52.80
34249;DHT22;20508;50.834;3.160;2022-09-09T05:53:45;24.10;52.70
34249;DHT22;20508;50.834;3.160;2022-09-09T05:56:37;24.10;52.90
34249;DHT22;20508;50.834;3.160;2022-09-09T05:59:08;24.10;52.90
34249;DHT22;20508;50.834;3.160;2022-09-09T06:01:51;24.10;52.80
34249;DHT22;20508;50.834;3.160;2022-09-09T06:04:40;24.00;52.80
34249;DHT22;20508;50.834;3.160;2022-09-09T06:07:09;24.00;52.70
34249;DHT22;20508;50.834;3.160;2022-09-09T06:09:41;24.10;52.90
34249;DHT22;20508;50.834;3.160;2022-09-09T06:12:23;24.10;52.90
34249;DHT22;20508;50.834;3.160;2022-09-09T06:15:04;24.10;52.80
34249;DHT22;20508;50.834;3.160;2022-09-09T06:17:33;24.00;52.70
34249;DHT22;20508;50.834;3.160;2022-09-09T06:20:12;24.00;53.00
34249;DHT22;20508;50.834;3.160;2022-09-09T06:22:41;24.00;52.90
34249;DHT22;20508;50.834;3.160;2022-09-09T06:25:20;24.10;52.90
34249;DHT22;20508;50.834;3.160;2022-09-09T06:27:51;24.10;52.80
34249;DHT22;20508;50.834;3.160;2022-09-09T06:30:32;24.10;52.90
34249;DHT22;20508;50.834;3.160;2022-09-09T06:33:14;24.00;52.80
34249;DHT22;20508;50.834;3.160;2022-09-09T06:35:54;24.10;52.90
34249;DHT22;20508;50.834;3.160;2022-09-09T06:38:40;24.00;53.00
34249;DHT22;20508;50.834;3.160;2022-09-09T06:41:29;24.00;53.10
34249;DHT22;20508;50.834;3.160;2022-09-09T06:44:17;24.00;53.10
34249;DHT22;20508;50.834;3.160;2022-09-09T06:46:59;24.00;53.20
34249;DHT22;20508;50.834;3.160;2022-09-09T06:50:03;23.90;53.40
34249;DHT22;20508;50.834;3.160;2022-09-09T06:52:40;24.00;53.40
34249;DHT22;20508;50.834;3.160;2022-09-09T06:55:24;23.90;53.50
34249;DHT22;20508;50.834;3.160;2022-09-09T06:58:13;23.90;53.80
34249;DHT22;20508;50.834;3.160;2022-09-09T07:03:59;23.90;54.10
34249;DHT22;20508;50.834;3.160;2022-09-09T07:06:40;23.80;54.30
34249;DHT22;20508;50.834;3.160;2022-09-09T07:09:31;23.80;54.20
34249;DHT22;20508;50.834;3.160;2022-09-09T07:12:16;23.80;54.40
34249;DHT22;20508;50.834;3.160;2022-09-09T07:15:02;23.80;54.30
34249;DHT22;20508;50.834;3.160;2022-09-09T07:17:50;23.80;54.40
34249;DHT22;20508;50.834;3.160;2022-09-09T07:20:22;23.80;54.40
34249;DHT22;20508;50.834;3.160;2022-09-09T07:23:05;23.80;54.40
34249;DHT22;20508;50.834;3.160;2022-09-09T07:26:02;23.80;54.40
34249;DHT22;20508;50.834;3.160;2022-09-09T07:28:41;23.70;54.20
34249;DHT22;20508;50.834;3.160;2022-09-09T07:31:38;23.80;54.40
34249;DHT22;20508;50.834;3.160;2022-09-09T07:34:10;23.80;54.60
34249;DHT22;20508;50.834;3.160;2022-09-09T07:37:12;23.70;54.60
34249;DHT22;20508;50.834;3.160;2022-09-09T07:39:48;23.80;54.40
34249;DHT22;20508;50.834;3.160;2022-09-09T07:42:40;23.80;54.60
34249;DHT22;20508;50.834;3.160;2022-09-09T07:45:47;23.80;54.60
34249;DHT22;20508;50.834;3.160;2022-09-09T07:48:25;23.80;54.60
34249;DHT22;20508;50.834;3.160;2022-09-09T07:51:12;23.80;54.60
34249;DHT22;20508;50.834;3.160;2022-09-09T07:54:19;23.80;54.70
34249;DHT22;20508;50.834;3.160;2022-09-09T07:57:13;23.80;54.60
34249;DHT22;20508;50.834;3.160;2022-09-09T08:00:03;23.70;54.90
34249;DHT22;20508;50.834;3.160;2022-09-09T08:02:55;23.70;54.90
34249;DHT22;20508;50.834;3.160;2022-09-09T08:08:53;23.70;55.30
34249;DHT22;20508;50.834;3.160;2022-09-09T08:11:50;23.60;55.60
34249;DHT22;20508;50.834;3.160;2022-09-09T08:14:49;23.60;55.40
34249;DHT22;20508;50.834;3.160;2022-09-09T08:17:33;23.60;55.50
34249;DHT22;20508;50.834;3.160;2022-09-09T08:20:57;23.70;55.50
34249;DHT22;20508;50.834;3.160;2022-09-09T08:23:27;23.60;55.50
34249;DHT22;20508;50.834;3.160;2022-09-09T08:26:12;23.60;55.70
34249;DHT22;20508;50.834;3.160;2022-09-09T08:28:59;23.70;55.60
34249;DHT22;20508;50.834;3.160;2022-09-09T08:34:24;23.70;55.70
34249;DHT22;20508;50.834;3.160;2022-09-09T08:37:03;23.60;55.60
34249;DHT22;20508;50.834;3.160;2022-09-09T08:39:34;23.70;55.70
34249;DHT22;20508;50.834;3.160;2022-09-09T08:42:23;23.70;55.80
34249;DHT22;20508;50.834;3.160;2022-09-09T08:50:53;23.70;56.00
34249;DHT22;20508;50.834;3.160;2022-09-09T08:53:41;23.60;56.20
34249;DHT22;20508;50.834;3.160;2022-09-09T08:56:39;23.70;56.10
34249;DHT22;20508;50.834;3.160;2022-09-09T08:59:45;23.60;56.20
34249;DHT22;20508;50.834;3.160;2022-09-09T09:02:32;23.80;56.40
34249;DHT22;20508;50.834;3.160;2022-09-09T09:09:28;23.80;56.30
34249;DHT22;20508;50.834;3.160;2022-09-09T09:12:47;23.70;56.30
34249;DHT22;20508;50.834;3.160;2022-09-09T09:15:18;23.70;56.50
34249;DHT22;20508;50.834;3.160;2022-09-09T09:17:57;23.60;56.70
34249;DHT22;20508;50.834;3.160;2022-09-09T09:25:19;23.70;56.60
34249;DHT22;20508;50.834;3.160;2022-09-09T09:34:31;23.60;56.70
34249;DHT22;20508;50.834;3.160;2022-09-09T09:41:05;23.50;56.70
34249;DHT22;20508;50.834;3.160;2022-09-09T09:43:55;23.60;56.90
34249;DHT22;20508;50.834;3.160;2022-09-09T09:46:36;23.50;56.90
34249;DHT22;20508;50.834;3.160;2022-09-09T09:52:26;23.50;56.80
34249;DHT22;20508;50.834;3.160;2022-09-09T09:58:22;23.60;56.70
34249;DHT22;20508;50.834;3.160;2022-09-09T10:00:59;23.60;56.70
34249;DHT22;20508;50.834;3.160;2022-09-09T10:07:09;23.50;56.70
34249;DHT22;20508;50.834;3.160;2022-09-09T10:10:12;23.50;56.80
34249;DHT22;20508;50.834;3.160;2022-09-09T10:13:10;23.50;56.80
34249;DHT22;20508;50.834;3.160;2022-09-09T10:37:35;23.60;57.00
34249;DHT22;20508;50.834;3.160;2022-09-09T10:55:09;23.60;57.50
34249;DHT22;20508;50.834;3.160;2022-09-09T10:58:09;23.60;57.60
34249;DHT22;20508;50.834;3.160;2022-09-09T11:01:12;23.70;57.20
34249;DHT22;20508;50.834;3.160;2022-09-09T11:04:00;23.70;57.00
34249;DHT22;20508;50.834;3.160;2022-09-09T11:10:01;23.80;56.70
34249;DHT22;20508;50.834;3.160;2022-09-09T11:12:35;23.70;56.90
34249;DHT22;20508;50.834;3.160;2022-09-09T11:15:38;23.80;56.90
34249;DHT22;20508;50.834;3.160;2022-09-09T11:18:22;23.90;56.70
34249;DHT22;20508;50.834;3.160;2022-09-09T11:21:06;23.90;57.00
34249;DHT22;20508;50.834;3.160;2022-09-09T11:23:52;23.80;57.40
34249;DHT22;20508;50.834;3.160;2022-09-09T11:26:38;23.90;57.60
34249;DHT22;20508;50.834;3.160;2022-09-09T11:35:24;24.00;57.10
34249;DHT22;20508;50.834;3.160;2022-09-09T11:38:28;23.90;57.10
34249;DHT22;20508;50.834;3.160;2022-09-09T11:41:32;24.00;57.00
34249;DHT22;20508;50.834;3.160;2022-09-09T11:44:23;23.90;57.10
34249;DHT22;20508;50.834;3.160;2022-09-09T11:47:15;23.90;57.00
34249;DHT22;20508;50.834;3.160;2022-09-09T11:52:46;23.90;56.90
34249;DHT22;20508;50.834;3.160;2022-09-09T11:55:59;23.90;57.00
34249;DHT22;20508;50.834;3.160;2022-09-09T11:58:26;23.90;57.10
34249;DHT22;20508;50.834;3.160;2022-09-09T12:00:53;23.80;57.30
34249;DHT22;20508;50.834;3.160;2022-09-09T12:07:22;23.90;56.90
34249;DHT22;20508;50.834;3.160;2022-09-09T12:15:59;23.70;57.50
34249;DHT22;20508;50.834;3.160;2022-09-09T12:19:02;23.70;57.60
34249;DHT22;20508;50.834;3.160;2022-09-09T12:21:58;23.80;57.50
34249;DHT22;20508;50.834;3.160;2022-09-09T12:24:40;23.90;57.50
34249;DHT22;20508;50.834;3.160;2022-09-09T12:27:45;23.90;57.40
34249;DHT22;20508;50.834;3.160;2022-09-09T12:30:18;23.90;57.40
34249;DHT22;20508;50.834;3.160;2022-09-09T12:33:39;23.90;57.40
34249;DHT22;20508;50.834;3.160;2022-09-09T12:36:33;23.90;57.10
34249;DHT22;20508;50.834;3.160;2022-09-09T12:39:45;23.90;57.30
34249;DHT22;20508;50.834;3.160;2022-09-09T12:42:31;23.90;57.30
34249;DHT22;20508;50.834;3.160;2022-09-09T12:45:22;23.90;57.80
34249;DHT22;20508;50.834;3.160;2022-09-09T12:48:08;23.90;57.80
34249;DHT22;20508;50.834;3.160;2022-09-09T12:50:58;23.90;57.50
34249;DHT22;20508;50.834;3.160;2022-09-09T12:53:35;23.80;57.70
34249;DHT22;20508;50.834;3.160;2022-09-09T12:59:38;23.90;57.60
34249;DHT22;20508;50.834;3.160;2022-09-09T13:02:28;23.90;57.80
34249;DHT22;20508;50.834;3.160;2022-09-09T13:05:40;23.90;57.60
34249;DHT22;20508;50.834;3.160;2022-09-09T13:08:38;24.00;57.60
34249;DHT22;20508;50.834;3.160;2022-09-09T13:11:24;24.00;57.40
34249;DHT22;20508;50.834;3.160;2022-09-09T13:14:14;24.00;57.40
34249;DHT22;20508;50.834;3.160;2022-09-09T13:17:21;24.00;57.40
34249;DHT22;20508;50.834;3.160;2022-09-09T13:20:01;24.00;57.30
34249;DHT22;20508;50.834;3.160;2022-09-09T13:22:38;23.90;57.50
34249;DHT22;20508;50.834;3.160;2022-09-09T13:25:58;24.00;57.90
34249;DHT22;20508;50.834;3.160;2022-09-09T13:28:39;24.00;57.20
34249;DHT22;20508;50.834;3.160;2022-09-09T13:31:36;24.00;57.50
34249;DHT22;20508;50.834;3.160;2022-09-09T13:34:29;24.00;57.30
34249;DHT22;20508;50.834;3.160;2022-09-09T13:37:27;24.00;57.40
34249;DHT22;20508;50.834;3.160;2022-09-09T13:39:56;24.00;56.90
34249;DHT22;20508;50.834;3.160;2022-09-09T13:42:28;24.00;57.00
34249;DHT22;20508;50.834;3.160;2022-09-09T13:45:00;24.10;56.70
34249;DHT22;20508;50.834;3.160;2022-09-09T13:47:44;24.10;56.60
34249;DHT22;20508;50.834;3.160;2022-09-09T13:50:32;24.10;56.20
34249;DHT22;20508;50.834;3.160;2022-09-09T13:53:09;24.10;55.90
34249;DHT22;20508;50.834;3.160;2022-09-09T13:55:38;24.30;55.70
34249;DHT22;20508;50.834;3.160;2022-09-09T13:58:17;24.20;55.40
34249;DHT22;20508;50.834;3.160;2022-09-09T14:00:54;24.30;54.80
34249;DHT22;20508;50.834;3.160;2022-09-09T14:03:23;24.30;54.40
34249;DHT22;20508;50.834;3.160;2022-09-09T14:06:00;24.30;53.90
34249;DHT22;20508;50.834;3.160;2022-09-09T14:08:29;24.40;53.60
34249;DHT22;20508;50.834;3.160;2022-09-09T14:11:03;24.30;53.80
34249;DHT22;20508;50.834;3.160;2022-09-09T14:13:34;24.30;53.80
34249;DHT22;20508;50.834;3.160;2022-09-09T14:16:23;24.30;53.90
34249;DHT22;20508;50.834;3.160;2022-09-09T14:18:49;24.40;53.80
34249;DHT22;20508;50.834;3.160;2022-09-09T14:21:16;24.30;53.90
34249;DHT22;20508;50.834;3.160;2022-09-09T14:23:50;24.30;53.80
34249;DHT22;20508;50.834;3.160;2022-09-09T14:26:26;24.30;53.90
34249;DHT22;20508;50.834;3.160;2022-09-09T14:29:02;24.30;53.90
34249;DHT22;20508;50.834;3.160;2022-09-09T14:31:49;24.30;53.90
34249;DHT22;20508;50.834;3.160;2022-09-09T14:34:26;24.30;54.10
34249;DHT22;20508;50.834;3.160;2022-09-09T14:37:05;24.30;54.00
34249;DHT22;20508;50.834;3.160;2022-09-09T14:39:34;24.20;54.00
34249;DHT22;20508;50.834;3.160;2022-09-09T14:42:07;24.30;54.10
34249;DHT22;20508;50.834;3.160;2022-09-09T14:44:51;24.30;54.10
34249;DHT22;20508;50.834;3.160;2022-09-09T14:47:22;24.20;54.10
34249;DHT22;20508;50.834;3.160;2022-09-09T14:50:08;24.20;54.40
34249;DHT22;20508;50.834;3.160;2022-09-09T14:52:42;24.30;54.30
34249;DHT22;20508;50.834;3.160;2022-09-09T14:55:18;24.20;54.40
34249;DHT22;20508;50.834;3.160;2022-09-09T14:58:05;24.10;54.50
34249;DHT22;20508;50.834;3.160;2022-09-09T15:00:53;24.20;54.70
34249;DHT22;20508;50.834;3.160;2022-09-09T15:03:49;24.20;55.00
34249;DHT22;20508;50.834;3.160;2022-09-09T15:06:22;24.10;55.00
34249;DHT22;20508;50.834;3.160;2022-09-09T15:09:02;24.10;55.10
34249;DHT22;20508;50.834;3.160;2022-09-09T15:11:38;24.10;55.00
34249;DHT22;20508;50.834;3.160;2022-09-09T15:14:16;24.10;55.10
34249;DHT22;20508;50.834;3.160;2022-09-09T15:16:55;24.10;55.00
34249;DHT22;20508;50.834;3.160;2022-09-09T15:22:33;24.10;55.10
34249;DHT22;20508;50.834;3.160;2022-09-09T15:25:18;24.20;55.10
34249;DHT22;20508;50.834;3.160;2022-09-09T15:27:55;24.20;55.20
34249;DHT22;20508;50.834;3.160;2022-09-09T15:30:34;24.20;55.40
34249;DHT22;20508;50.834;3.160;2022-09-09T15:33:08;24.20;55.70
34249;DHT22;20508;50.834;3.160;2022-09-09T15:35:47;24.20;55.80
34249;DHT22;20508;50.834;3.160;2022-09-09T15:38:36;24.20;56.00
34249;DHT22;20508;50.834;3.160;2022-09-09T15:41:05;24.10;56.10
34249;DHT22;20508;50.834;3.160;2022-09-09T15:46:49;24.20;56.40
34249;DHT22;20508;50.834;3.160;2022-09-09T15:49:35;24.20;56.40
34249;DHT22;20508;50.834;3.160;2022-09-09T15:52:13;24.20;56.60
34249;DHT22;20508;50.834;3.160;2022-09-09T15:54:44;24.20;56.70
34249;DHT22;20508;50.834;3.160;2022-09-09T15:57:31;24.30;56.50
34249;DHT22;20508;50.834;3.160;2022-09-09T16:00:13;24.30;56.70
34249;DHT22;20508;50.834;3.160;2022-09-09T16:03:02;24.20;56.40
34249;DHT22;20508;50.834;3.160;2022-09-09T16:05:42;24.30;56.30
34249;DHT22;20508;50.834;3.160;2022-09-09T16:08:29;24.20;56.10
34249;DHT22;20508;50.834;3.160;2022-09-09T16:11:07;24.10;56.20
34249;DHT22;20508;50.834;3.160;2022-09-09T16:13:48;24.10;56.20
34249;DHT22;20508;50.834;3.160;2022-09-09T16:16:43;24.10;56.10
34249;DHT22;20508;50.834;3.160;2022-09-09T16:19:22;24.10;56.10
34249;DHT22;20508;50.834;3.160;2022-09-09T16:21:55;24.10;56.10
34249;DHT22;20508;50.834;3.160;2022-09-09T16:24:35;24.00;55.90
34249;DHT22;20508;50.834;3.160;2022-09-09T16:27:08;24.10;55.90
34249;DHT22;20508;50.834;3.160;2022-09-09T16:29:45;24.10;56.10
34249;DHT22;20508;50.834;3.160;2022-09-09T16:32:20;24.20;56.60
34249;DHT22;20508;50.834;3.160;2022-09-09T16:35:02;24.30;56.30
34249;DHT22;20508;50.834;3.160;2022-09-09T16:37:38;24.40;55.90
34249;DHT22;20508;50.834;3.160;2022-09-09T16:40:16;24.40;55.70
34249;DHT22;20508;50.834;3.160;2022-09-09T16:42:49;24.40;55.40
34249;DHT22;20508;50.834;3.160;2022-09-09T16:45:22;24.40;55.30
34249;DHT22;20508;50.834;3.160;2022-09-09T16:48:03;24.30;55.10
34249;DHT22;20508;50.834;3.160;2022-09-09T16:50:50;24.30;55.20
34249;DHT22;20508;50.834;3.160;2022-09-09T16:53:30;24.20;55.20
34249;DHT22;20508;50.834;3.160;2022-09-09T16:56:09;24.20;55.20
34249;DHT22;20508;50.834;3.160;2022-09-09T16:59:04;24.20;55.60
34249;DHT22;20508;50.834;3.160;2022-09-09T17:01:40;24.20;55.00
34249;DHT22;20508;50.834;3.160;2022-09-09T17:04:21;24.10;55.10
34249;DHT22;20508;50.834;3.160;2022-09-09T17:07:08;24.10;55.00
34249;DHT22;20508;50.834;3.160;2022-09-09T17:09:54;24.10;55.10
34249;DHT22;20508;50.834;3.160;2022-09-09T17:12:25;24.10;55.00
34249;DHT22;20508;50.834;3.160;2022-09-09T17:15:05;24.10;55.00
34249;DHT22;20508;50.834;3.160;2022-09-09T17:17:47;24.10;55.00
34249;DHT22;20508;50.834;3.160;2022-09-09T17:20:25;24.10;55.00
34249;DHT22;20508;50.834;3.160;2022-09-09T17:23:02;24.10;55.10
34249;DHT22;20508;50.834;3.160;2022-09-09T17:25:31;24.10;55.00
34249;DHT22;20508;50.834;3.160;2022-09-09T17:28:16;24.00;54.90
34249;DHT22;20508;50.834;3.160;2022-09-09T17:30:53;24.10;54.90
34249;DHT22;20508;50.834;3.160;2022-09-09T17:33:51;24.00;54.80
34249;DHT22;20508;50.834;3.160;2022-09-09T17:36:39;24.00;54.70
34249;DHT22;20508;50.834;3.160;2022-09-09T17:39:08;24.00;54.70
34249;DHT22;20508;50.834;3.160;2022-09-09T17:41:45;23.90;54.50
34249;DHT22;20508;50.834;3.160;2022-09-09T17:44:25;23.90;54.50
34249;DHT22;20508;50.834;3.160;2022-09-09T17:47:28;23.90;54.50
34249;DHT22;20508;50.834;3.160;2022-09-09T17:53:02;24.00;54.20
34249;DHT22;20508;50.834;3.160;2022-09-09T17:55:42;24.00;54.10
34249;DHT22;20508;50.834;3.160;2022-09-09T17:58:21;23.90;53.90
34249;DHT22;20508;50.834;3.160;2022-09-09T18:01:17;23.90;53.90
34249;DHT22;20508;50.834;3.160;2022-09-09T18:03:50;23.90;54.10
34249;DHT22;20508;50.834;3.160;2022-09-09T18:06:21;23.90;54.00
34249;DHT22;20508;50.834;3.160;2022-09-09T18:09:01;23.90;53.80
34249;DHT22;20508;50.834;3.160;2022-09-09T18:11:43;23.90;53.80
34249;DHT22;20508;50.834;3.160;2022-09-09T18:14:14;23.90;53.80
34249;DHT22;20508;50.834;3.160;2022-09-09T18:17:01;23.90;53.80
34249;DHT22;20508;50.834;3.160;2022-09-09T18:19:40;23.90;54.00
34249;DHT22;20508;50.834;3.160;2022-09-09T18:22:40;23.90;53.90
34249;DHT22;20508;50.834;3.160;2022-09-09T18:25:11;23.90;53.80
34249;DHT22;20508;50.834;3.160;2022-09-09T18:27:58;23.90;53.90
34249;DHT22;20508;50.834;3.160;2022-09-09T18:30:38;23.90;53.90
34249;DHT22;20508;50.834;3.160;2022-09-09T18:33:10;23.90;53.80
34249;DHT22;20508;50.834;3.160;2022-09-09T18:35:49;24.00;53.80
34249;DHT22;20508;50.834;3.160;2022-09-09T18:38:28;23.90;53.80
34249;DHT22;20508;50.834;3.160;2022-09-09T18:44:05;24.00;53.70
34249;DHT22;20508;50.834;3.160;2022-09-09T18:46:42;23.90;53.80
34249;DHT22;20508;50.834;3.160;2022-09-09T18:49:20;23.90;53.80
34249;DHT22;20508;50.834;3.160;2022-09-09T18:51:57;23.90;53.80
34249;DHT22;20508;50.834;3.160;2022-09-09T18:54:32;24.00;53.80
34249;DHT22;20508;50.834;3.160;2022-09-09T18:57:13;24.00;53.80
34249;DHT22;20508;50.834;3.160;2022-09-09T18:59:52;24.00;53.80
34249;DHT22;20508;50.834;3.160;2022-09-09T19:02:22;24.00;53.70
34249;DHT22;20508;50.834;3.160;2022-09-09T19:04:48;24.00;53.70
34249;DHT22;20508;50.834;3.160;2022-09-09T19:07:15;24.00;53.70
34249;DHT22;20508;50.834;3.160;2022-09-09T19:09:55;24.00;54.40
34249;DHT22;20508;50.834;3.160;2022-09-09T19:12:39;24.10;54.20
34249;DHT22;20508;50.834;3.160;2022-09-09T19:15:38;24.20;53.90
34249;DHT22;20508;50.834;3.160;2022-09-09T19:18:05;24.30;53.60
34249;DHT22;20508;50.834;3.160;2022-09-09T19:20:44;24.10;53.60
34249;DHT22;20508;50.834;3.160;2022-09-09T19:23:37;24.20;53.60
34249;DHT22;20508;50.834;3.160;2022-09-09T19:26:31;24.20;53.60
34249;DHT22;20508;50.834;3.160;2022-09-09T19:29:12;24.10;53.60
34249;DHT22;20508;50.834;3.160;2022-09-09T19:31:48;24.10;53.60
34249;DHT22;20508;50.834;3.160;2022-09-09T19:34:26;24.20;53.70
34249;DHT22;20508;50.834;3.160;2022-09-09T19:37:02;24.10;53.80
34249;DHT22;20508;50.834;3.160;2022-09-09T19:39:42;24.10;53.80
34249;DHT22;20508;50.834;3.160;2022-09-09T19:42:21;24.10;53.90
34249;DHT22;20508;50.834;3.160;2022-09-09T19:45:00;24.10;54.00